createdAt,value
2018-05-03T00:09:07.532Z,9.07
2018-05-03T00:11:35.884Z,11.50
2018-05-03T00:14:03.466Z,11.20
2018-05-03T00:21:39.092Z,10.23
2018-05-03T00:24:06.712Z,11.00
2018-05-03T00:26:34.364Z,8.00
2018-05-03T00:34:09.327Z,11.27
2018-05-03T00:36:36.926Z,12.43
2018-05-03T00:39:04.580Z,7.43
2018-05-03T00:41:32.167Z,9.27
2018-05-03T04:20:30.219Z,14.53
2018-05-03T04:26:04.147Z,12.40
2018-05-03T04:28:31.728Z,13.33
2018-05-03T04:31:00.074Z,11.00
2018-05-03T05:42:07.894Z,12.63
2018-05-03T06:04:46.491Z,8.90
2018-05-03T06:10:07.451Z,13.60
2018-05-03T06:27:24.363Z,7.23
2018-05-03T06:30:12.004Z,7.87
2018-05-03T07:01:33.176Z,9.37
2018-05-03T07:47:22.076Z,7.97
2018-05-03T07:49:49.655Z,4.43
2018-05-03T07:52:17.276Z,6.27
2018-05-03T07:54:45.640Z,7.10
2018-05-03T08:02:20.828Z,6.10
2018-05-03T08:04:49.169Z,7.83
2018-05-03T08:07:16.792Z,6.07
2018-05-03T08:09:44.364Z,7.03
2018-05-03T08:12:11.985Z,6.67
2018-05-03T08:14:40.329Z,6.73
2018-05-03T08:17:08.025Z,8.17
2018-05-03T08:19:35.583Z,6.37
2018-05-03T08:22:03.929Z,7.70
2018-05-03T08:24:31.544Z,7.70
2018-05-03T08:26:59.116Z,5.77
2018-05-03T08:29:26.732Z,7.90
2018-05-03T08:31:55.214Z,8.50
2018-05-03T08:34:22.741Z,9.73
2018-05-03T08:36:50.369Z,9.10
2018-05-03T08:39:17.955Z,7.17
2018-05-03T08:41:45.612Z,6.43
2018-05-03T08:44:13.185Z,4.47
2018-05-03T08:46:40.813Z,6.67
2018-05-03T08:49:08.443Z,5.33
2018-05-03T08:51:36.807Z,5.30
2018-05-03T08:54:05.202Z,6.97
2018-05-03T08:56:32.776Z,5.20
2018-05-03T08:59:00.428Z,5.13
2018-05-03T09:01:28.068Z,7.53
2018-05-03T09:03:55.676Z,7.10
2018-05-03T09:06:23.256Z,8.33
2018-05-03T09:08:50.876Z,5.13
2018-05-03T09:11:18.505Z,4.50
2018-05-03T09:13:46.868Z,4.27
2018-05-03T09:16:14.452Z,5.77
2018-05-03T09:18:42.848Z,9.93
2018-05-03T09:21:10.554Z,5.17
2018-05-03T09:23:38.137Z,4.03
2018-05-03T09:26:05.759Z,5.27
2018-05-03T09:28:33.338Z,6.80
2018-05-03T09:31:00.951Z,6.53
2018-05-03T09:33:28.631Z,3.20
2018-05-03T09:35:56.218Z,3.20
2018-05-03T09:38:23.855Z,3.43
2018-05-03T09:40:51.443Z,5.93
2018-05-03T09:43:19.068Z,5.37
2018-05-03T09:45:46.652Z,4.07
2018-05-03T09:48:14.271Z,4.80
2018-05-03T09:50:41.855Z,4.80
2018-05-03T09:53:09.472Z,4.23
2018-05-03T09:55:37.820Z,3.00
2018-05-03T09:58:05.447Z,3.70
2018-05-03T10:00:33.027Z,6.50
2018-05-03T10:03:00.733Z,4.17
2018-05-03T10:05:28.351Z,4.37
2018-05-03T10:07:55.986Z,5.93
2018-05-03T10:10:23.567Z,6.23
2018-05-03T10:12:51.187Z,4.07
2018-05-03T10:15:18.811Z,3.83
2018-05-03T10:17:46.455Z,3.17
2018-05-03T10:20:14.058Z,5.70
2018-05-03T10:22:41.675Z,6.43
2018-05-03T10:25:09.306Z,6.07
2018-05-03T10:27:36.906Z,3.67
2018-05-03T10:30:04.481Z,2.50
2018-05-03T10:32:32.889Z,6.63
2018-05-03T10:35:00.500Z,3.73
2018-05-03T10:37:28.080Z,4.03
2018-05-03T10:39:56.463Z,4.37
2018-05-03T10:42:24.839Z,7.80
2018-05-03T10:44:53.232Z,5.53
2018-05-03T10:47:20.842Z,5.37
2018-05-03T10:49:48.460Z,4.40
2018-05-03T10:52:16.075Z,3.63
2018-05-03T10:54:43.728Z,4.27
2018-05-03T10:57:11.317Z,8.20
2018-05-03T10:59:39.031Z,8.10
2018-05-03T11:02:06.622Z,5.83
2018-05-03T11:04:34.245Z,5.80
2018-05-03T11:07:01.829Z,6.80
2018-05-03T11:09:29.462Z,5.20
2018-05-03T11:11:57.047Z,4.47
2018-05-03T11:14:24.623Z,4.73
2018-05-03T11:16:52.256Z,5.93
2018-05-03T11:19:19.843Z,4.70
2018-05-03T11:21:47.430Z,6.87
2018-05-03T11:24:15.055Z,5.13
2018-05-03T11:26:42.827Z,7.00
2018-05-03T11:29:11.184Z,4.40
2018-05-03T11:31:39.018Z,5.27
2018-05-03T11:34:07.509Z,5.30
2018-05-03T11:36:35.171Z,7.13
2018-05-03T11:39:02.747Z,5.10
2018-05-03T11:41:30.380Z,7.03
2018-05-03T11:43:58.170Z,7.60
2018-05-03T11:46:25.756Z,4.47
2018-05-03T11:48:54.212Z,4.70
2018-05-03T11:51:21.778Z,4.97
2018-05-03T11:53:50.188Z,6.77
2018-05-03T11:56:17.827Z,8.80
2018-05-03T11:58:46.179Z,8.40
2018-05-03T12:01:13.800Z,6.23
2018-05-03T12:03:41.420Z,6.93
2018-05-03T12:06:09.770Z,5.87
2018-05-03T12:08:37.418Z,12.93
2018-05-03T12:11:05.015Z,7.67
2018-05-03T12:13:33.395Z,5.83
2018-05-03T12:16:01.755Z,6.57
2018-05-03T12:18:29.408Z,5.90
2018-05-03T12:20:56.996Z,7.20
2018-05-03T12:23:25.384Z,6.70
2018-05-03T12:25:52.975Z,6.35
2018-05-03T12:28:20.598Z,5.10
2018-05-03T12:30:48.240Z,9.93
2018-05-03T12:33:16.592Z,4.12
2018-05-03T12:35:45.455Z,6.65
2018-05-03T12:38:13.085Z,8.23
2018-05-03T12:40:40.748Z,8.73
2018-05-03T12:43:08.334Z,6.87
2018-05-03T12:45:35.979Z,7.90
2018-05-03T12:48:03.572Z,5.60
2018-05-03T12:50:31.195Z,5.47
2018-05-03T12:52:58.816Z,7.65
2018-05-03T12:55:27.195Z,10.45
2018-05-03T12:57:55.595Z,8.77
2018-05-03T13:00:23.173Z,6.72
2018-05-03T13:02:50.823Z,7.82
2018-05-03T13:05:18.428Z,8.05
2018-05-03T13:07:46.060Z,7.72
2018-05-03T13:10:13.688Z,9.52
2018-05-03T13:12:41.278Z,9.05
2018-05-03T13:15:08.911Z,10.73
2018-05-03T13:17:36.540Z,8.43
2018-05-03T13:20:04.226Z,8.52
2018-05-03T13:22:31.820Z,9.43
2018-05-03T13:24:59.404Z,9.30
2018-05-03T13:27:27.035Z,8.52
2018-05-03T13:29:54.667Z,11.55
2018-05-03T13:32:22.248Z,9.77
2018-05-03T13:34:49.891Z,8.63
2018-05-03T13:37:17.511Z,7.12
2018-05-03T13:39:45.096Z,6.82
2018-05-03T13:42:12.765Z,9.45
2018-05-03T13:44:40.355Z,9.52
2018-05-03T13:47:07.973Z,7.28
2018-05-03T13:49:35.553Z,11.63
2018-05-03T13:52:03.229Z,6.85
2018-05-03T13:54:30.861Z,7.55
2018-05-03T13:56:58.942Z,9.07
2018-05-03T13:59:26.718Z,8.20
2018-05-03T14:01:54.383Z,9.73
2018-05-03T14:04:21.996Z,8.63
2018-05-03T14:06:49.979Z,7.72
2018-05-03T14:09:17.645Z,12.48
2018-05-03T14:11:46.000Z,13.93
2018-05-03T14:14:14.513Z,10.88
2018-05-03T14:16:43.058Z,10.48
2018-05-03T14:19:11.038Z,9.68
2018-05-03T14:21:38.692Z,15.10
2018-05-03T14:24:07.072Z,9.60
2018-05-03T14:26:35.488Z,10.25
2018-05-03T14:29:03.219Z,14.07
2018-05-03T14:31:30.964Z,12.10
2018-05-03T14:33:58.700Z,11.48
2018-05-03T14:36:27.150Z,18.17
2018-05-03T14:38:54.768Z,11.50
2018-05-03T14:41:22.531Z,12.35
2018-05-03T14:43:50.161Z,9.32
2018-05-03T14:46:17.760Z,15.55
2018-05-03T14:48:46.165Z,14.35
2018-05-03T14:51:13.843Z,14.98
2018-05-03T14:53:41.433Z,18.47
2018-05-03T14:56:09.034Z,14.53
2018-05-03T14:58:36.662Z,14.18
2018-05-03T15:01:04.324Z,23.70
2018-05-03T15:03:32.206Z,16.07
2018-05-03T15:05:59.802Z,24.50
2018-05-03T15:08:27.430Z,19.93
2018-05-03T15:10:55.784Z,22.07
2018-05-03T15:13:23.715Z,24.43
2018-05-03T15:15:51.502Z,16.67
2018-05-03T15:18:19.152Z,11.00
2018-05-03T15:20:47.512Z,15.80
2018-05-03T15:23:15.145Z,17.27
2018-05-03T15:25:42.936Z,14.27
2018-05-03T15:28:10.797Z,16.60
2018-05-03T15:30:38.624Z,15.03
2018-05-03T15:33:07.936Z,17.13
2018-05-03T15:35:35.532Z,15.27
2018-05-03T15:38:03.160Z,16.63
2018-05-03T15:40:30.748Z,12.03
2018-05-03T15:43:00.129Z,17.80
2018-05-03T15:45:27.908Z,17.93
2018-05-03T15:47:55.552Z,13.20
2018-05-03T15:50:23.837Z,12.07
2018-05-03T15:52:51.804Z,9.53
2018-05-03T15:55:19.494Z,14.63
2018-05-03T15:57:47.160Z,12.13
2018-05-03T16:00:15.659Z,16.00
2018-05-03T16:02:44.282Z,11.43
2018-05-03T16:05:12.787Z,12.20
2018-05-03T16:07:40.464Z,11.73
2018-05-03T16:10:10.706Z,9.73
2018-05-03T16:12:39.124Z,10.40
2018-05-03T16:15:06.724Z,12.20
2018-05-03T16:17:34.423Z,11.13
2018-05-03T16:20:02.136Z,11.10
2018-05-03T16:22:29.886Z,12.10
2018-05-03T16:24:58.335Z,17.23
2018-05-03T16:27:26.695Z,15.20
2018-05-03T16:29:54.323Z,9.70
2018-05-03T16:32:22.040Z,13.67
2018-05-03T16:34:49.960Z,11.73
2018-05-03T16:37:17.596Z,12.87
2018-05-03T16:39:46.023Z,9.90
2018-05-03T16:42:14.548Z,11.40
2018-05-03T16:44:42.213Z,13.53
2018-05-03T16:47:09.853Z,14.43
2018-05-03T16:49:37.504Z,11.83
2018-05-03T16:52:05.175Z,13.03
2018-05-03T16:54:33.665Z,13.23
2018-05-03T16:57:02.309Z,11.33
2018-05-03T16:59:30.065Z,11.30
2018-05-03T17:01:57.950Z,14.23
2018-05-03T17:04:25.608Z,10.40
2018-05-03T17:06:53.196Z,12.27
2018-05-03T17:09:20.780Z,10.63
2018-05-03T17:11:48.690Z,14.17
2018-05-03T17:14:16.400Z,12.10
2018-05-03T17:16:44.551Z,14.60
2018-05-03T17:19:12.180Z,13.83
2018-05-03T17:21:40.528Z,12.60
2018-05-03T17:24:08.143Z,10.67
2018-05-03T17:26:36.652Z,11.13
2018-05-03T17:29:04.311Z,13.33
2018-05-03T17:31:31.892Z,11.00
2018-05-03T17:33:59.492Z,11.87
2018-05-03T17:36:27.140Z,15.67
2018-05-03T17:38:54.747Z,13.20
2018-05-03T17:41:23.487Z,11.60
2018-05-03T17:43:51.160Z,11.60
2018-05-03T17:46:19.793Z,13.27
2018-05-03T17:48:48.680Z,9.87
2018-05-03T17:51:16.540Z,15.87
2018-05-03T17:53:44.864Z,14.10
2018-05-03T17:56:12.463Z,13.07
2018-05-03T17:58:40.100Z,13.53
2018-05-03T18:01:07.781Z,14.73
2018-05-03T18:03:37.256Z,13.13
2018-05-03T18:06:05.022Z,13.70
2018-05-03T18:08:32.660Z,11.67
2018-05-03T18:11:00.727Z,11.87
2018-05-03T18:13:29.992Z,12.57
2018-05-03T18:15:58.024Z,21.60
2018-05-03T18:18:25.655Z,11.07
2018-05-03T18:20:53.340Z,10.07
2018-05-03T18:23:20.946Z,12.60
2018-05-03T18:25:50.217Z,11.97
2018-05-03T18:28:17.947Z,12.70
2018-05-03T18:30:45.525Z,10.57
2018-05-03T18:33:13.156Z,15.43
2018-05-03T18:35:41.511Z,11.07
2018-05-03T18:38:09.184Z,13.87
2018-05-03T18:40:36.792Z,11.07
2018-05-03T18:43:05.394Z,14.63
2018-05-03T18:45:32.988Z,12.63
2018-05-03T18:48:01.393Z,15.50
2018-05-03T18:50:29.775Z,11.20
2018-05-03T18:52:57.447Z,12.20
2018-05-03T18:55:25.093Z,13.27
2018-05-03T18:57:53.436Z,11.60
2018-05-03T19:00:21.122Z,14.93
2018-05-03T19:02:49.785Z,17.83
2018-05-03T19:05:18.212Z,15.67
2018-05-03T19:07:45.807Z,13.17
2018-05-03T19:10:13.583Z,12.37
2018-05-03T19:12:41.107Z,15.53
2018-05-03T19:15:08.761Z,11.00
2018-05-03T19:17:36.351Z,11.37
2018-05-03T19:20:04.041Z,13.47
2018-05-03T19:22:31.676Z,13.60
2018-05-03T19:24:59.288Z,12.00
2018-05-03T19:27:27.698Z,12.27
2018-05-03T19:29:55.283Z,13.10
2018-05-03T19:32:22.906Z,15.73
2018-05-03T19:34:51.311Z,18.37
2018-05-03T19:37:18.944Z,13.30
2018-05-03T19:39:47.345Z,13.33
2018-05-03T19:42:14.936Z,14.20
2018-05-03T19:44:42.564Z,10.77
2018-05-03T19:47:10.188Z,11.23
2018-05-03T19:49:37.815Z,16.03
2018-05-03T19:52:05.395Z,12.47
2018-05-03T19:54:33.012Z,16.43
2018-05-03T19:57:00.644Z,13.23
2018-05-03T19:59:29.189Z,15.00
2018-05-03T20:01:56.796Z,17.73
2018-05-03T20:04:25.204Z,11.73
2018-05-03T20:06:52.942Z,18.23
2018-05-03T20:09:20.544Z,14.43
2018-05-03T20:11:48.187Z,15.07
2018-05-03T20:14:16.538Z,12.47
2018-05-03T20:16:44.220Z,11.27
2018-05-03T20:19:12.591Z,12.10
2018-05-03T20:21:40.987Z,11.27
2018-05-03T20:24:09.342Z,13.13
2018-05-03T20:26:36.993Z,14.50
2018-05-03T20:29:04.592Z,12.33
2018-05-03T20:31:32.238Z,11.57
2018-05-03T20:34:00.648Z,13.87
2018-05-03T20:36:28.240Z,12.23
2018-05-03T20:38:55.826Z,12.27
2018-05-03T20:41:23.460Z,11.07
2018-05-03T20:43:51.078Z,12.50
2018-05-03T20:46:19.464Z,13.00
2018-05-03T20:48:47.808Z,11.43
2018-05-03T20:51:15.433Z,8.57
2018-05-03T20:53:43.020Z,13.60
2018-05-03T20:56:10.659Z,10.30
2018-05-03T20:58:39.008Z,11.50
2018-05-03T21:01:06.654Z,13.37
2018-05-03T21:03:34.436Z,17.30
2018-05-03T21:06:02.867Z,15.00
2018-05-03T21:08:31.216Z,10.73
2018-05-03T21:10:58.839Z,19.03
2018-05-03T21:13:26.468Z,11.77
2018-05-03T21:15:54.100Z,10.20
2018-05-03T21:18:21.684Z,12.33
2018-05-03T21:20:49.356Z,12.80
2018-05-03T21:23:16.944Z,12.93
2018-05-03T21:25:44.577Z,11.33
2018-05-03T21:28:12.194Z,11.97
2018-05-03T21:30:39.840Z,11.83
2018-05-03T21:33:07.486Z,15.57
2018-05-03T21:35:35.131Z,13.23
2018-05-03T21:38:02.720Z,11.60
2018-05-03T21:40:30.339Z,12.17
2018-05-03T21:42:57.917Z,15.43
2018-05-03T21:45:25.559Z,10.67
2018-05-03T21:47:53.143Z,11.93
2018-05-03T21:50:20.723Z,13.43
2018-05-03T21:52:48.360Z,10.70
2018-05-03T21:55:15.943Z,14.57
2018-05-03T21:57:43.572Z,10.43
2018-05-03T22:00:11.199Z,12.70
2018-05-03T22:02:38.828Z,15.20
2018-05-03T22:05:06.466Z,11.70
2018-05-03T22:07:34.051Z,12.87
2018-05-03T22:10:02.444Z,12.83
2018-05-03T22:12:30.802Z,12.77
2018-05-03T22:14:58.423Z,12.53
2018-05-03T22:17:26.076Z,10.80
2018-05-03T22:19:53.662Z,13.53
2018-05-03T22:22:21.297Z,15.97
2018-05-03T22:24:48.891Z,12.40
2018-05-03T22:27:16.477Z,11.93
2018-05-03T22:29:44.111Z,14.10
2018-05-03T22:32:11.735Z,13.23
2018-05-03T22:34:39.321Z,15.87
2018-05-03T22:37:06.960Z,13.43
2018-05-03T22:39:34.547Z,10.97
2018-05-03T22:42:02.171Z,11.03
2018-05-03T22:44:29.756Z,11.47
2018-05-03T22:46:57.380Z,13.40
2018-05-03T22:49:25.736Z,12.50
2018-05-03T22:51:53.352Z,9.27
2018-05-03T22:54:20.959Z,13.13
2018-05-03T22:56:48.547Z,11.77
2018-05-03T22:59:16.173Z,14.47
2018-05-03T23:01:43.765Z,10.77
2018-05-03T23:04:11.420Z,11.50
2018-05-03T23:06:39.011Z,13.53
2018-05-03T23:09:06.632Z,16.63
2018-05-03T23:11:34.212Z,13.93
2018-05-03T23:14:01.857Z,12.33
2018-05-03T23:16:29.444Z,9.60
2018-05-03T23:18:57.075Z,13.37
2018-05-03T23:21:24.671Z,11.17
2018-05-03T23:23:53.068Z,11.97
2018-05-03T23:26:20.696Z,13.20
2018-05-03T23:28:49.205Z,8.67
2018-05-03T23:31:16.832Z,12.10
2018-05-03T23:33:44.428Z,11.20
2018-05-03T23:36:12.043Z,12.30
2018-05-03T23:38:39.667Z,12.20
2018-05-03T23:41:07.265Z,15.13
2018-05-03T23:43:34.884Z,12.27
2018-05-03T23:46:02.511Z,11.80
2018-05-03T23:48:30.864Z,11.33
2018-05-03T23:50:58.489Z,11.57
2018-05-03T23:53:26.157Z,13.10
2018-05-03T23:55:53.821Z,12.47
2018-05-03T23:58:21.452Z,9.60
